sensor_id;sensor_type;location;lat;lon;timestamp;temperature;humidity
41294;DHT22;27037;52.010;4.446;2022-10-31T00:00:55;12.80;99.90
41294;DHT22;27037;52.010;4.446;2022-10-31T00:03:21;12.80;99.90
41294;DHT22;27037;52.010;4.446;2022-10-31T00:05:48;12.80;99.90
41294;DHT22;27037;52.010;4.446;2022-10-31T00:08:16;12.80;99.90
41294;DHT22;27037;52.010;4.446;2022-10-31T00:10:42;12.80;99.90
41294;DHT22;27037;52.010;4.446;2022-10-31T00:13:09;12.90;99.90
41294;DHT22;27037;52.010;4.446;2022-10-31T00:15:36;12.90;99.90
41294;DHT22;27037;52.010;4.446;2022-10-31T00:18:02;12.90;99.90
41294;DHT22;27037;52.010;4.446;2022-10-31T00:20:28;12.90;99.90
41294;DHT22;27037;52.010;4.446;2022-10-31T00:22:57;12.80;99.90
41294;DHT22;27037;52.010;4.446;2022-10-31T00:25:23;12.80;99.90
41294;DHT22;27037;52.010;4.446;2022-10-31T00:27:48;12.80;99.90
41294;DHT22;27037;52.010;4.446;2022-10-31T00:30:14;12.80;99.90
41294;DHT22;27037;52.010;4.446;2022-10-31T00:32:40;12.80;99.90
41294;DHT22;27037;52.010;4.446;2022-10-31T00:35:06;12.80;99.90
41294;DHT22;27037;52.010;4.446;2022-10-31T00:37:31;12.80;99.90
41294;DHT22;27037;52.010;4.446;2022-10-31T00:39:57;12.80;99.90
41294;DHT22;27037;52.010;4.446;2022-10-31T00:42:22;12.80;99.90
41294;DHT22;27037;52.010;4.446;2022-10-31T00:44:48;12.80;99.90
41294;DHT22;27037;52.010;4.446;2022-10-31T00:47:13;12.70;99.90
41294;DHT22;27037;52.010;4.446;2022-10-31T00:49:39;12.70;99.90
41294;DHT22;27037;52.010;4.446;2022-10-31T00:52:05;12.70;99.90
41294;DHT22;27037;52.010;4.446;2022-10-31T00:54:30;12.70;99.90
41294;DHT22;27037;52.010;4.446;2022-10-31T00:56:56;12.60;99.90
41294;DHT22;27037;52.010;4.446;2022-10-31T00:59:22;12.70;99.90
41294;DHT22;27037;52.010;4.446;2022-10-31T01:01:48;12.70;99.90
41294;DHT22;27037;52.010;4.446;2022-10-31T01:04:13;12.60;99.90
41294;DHT22;27037;52.010;4.446;2022-10-31T01:06:39;12.60;99.90
41294;DHT22;27037;52.010;4.446;2022-10-31T01:09:05;12.60;99.90
41294;DHT22;27037;52.010;4.446;2022-10-31T01:11:30;12.60;99.90
41294;DHT22;27037;52.010;4.446;2022-10-31T01:13:56;12.60;99.90
41294;DHT22;27037;52.010;4.446;2022-10-31T01:16:24;12.60;99.90
41294;DHT22;27037;52.010;4.446;2022-10-31T01:18:50;12.50;99.90
41294;DHT22;27037;52.010;4.446;2022-10-31T01:21:21;12.50;99.90
41294;DHT22;27037;52.010;4.446;2022-10-31T01:23:47;12.50;99.90
41294;DHT22;27037;52.010;4.446;2022-10-31T01:26:18;12.40;99.90
41294;DHT22;27037;52.010;4.446;2022-10-31T01:28:49;12.40;99.90
41294;DHT22;27037;52.010;4.446;2022-10-31T01:31:17;12.40;99.90
41294;DHT22;27037;52.010;4.446;2022-10-31T01:33:43;12.30;99.90
41294;DHT22;27037;52.010;4.446;2022-10-31T01:36:27;12.30;99.90
41294;DHT22;27037;52.010;4.446;2022-10-31T01:38:55;12.30;99.90
41294;DHT22;27037;52.010;4.446;2022-10-31T01:41:25;12.20;99.90
41294;DHT22;27037;52.010;4.446;2022-10-31T01:46:54;12.10;99.90
41294;DHT22;27037;52.010;4.446;2022-10-31T01:51:52;12.10;99.90
41294;DHT22;27037;52.010;4.446;2022-10-31T01:54:21;12.10;99.90
41294;DHT22;27037;52.010;4.446;2022-10-31T01:56:53;12.00;99.90
41294;DHT22;27037;52.010;4.446;2022-10-31T01:59:21;12.00;99.90
41294;DHT22;27037;52.010;4.446;2022-10-31T02:01:48;11.90;99.90
41294;DHT22;27037;52.010;4.446;2022-10-31T02:04:15;11.80;99.90
41294;DHT22;27037;52.010;4.446;2022-10-31T02:06:46;11.80;99.90
41294;DHT22;27037;52.010;4.446;2022-10-31T02:09:14;11.80;99.90
41294;DHT22;27037;52.010;4.446;2022-10-31T02:11:41;11.70;99.90
41294;DHT22;27037;52.010;4.446;2022-10-31T02:14:07;11.70;99.90
41294;DHT22;27037;52.010;4.446;2022-10-31T02:16:33;11.70;99.90
41294;DHT22;27037;52.010;4.446;2022-10-31T02:18:58;11.60;99.90
41294;DHT22;27037;52.010;4.446;2022-10-31T02:21:53;11.60;99.90
41294;DHT22;27037;52.010;4.446;2022-10-31T02:24:42;11.50;99.90
41294;DHT22;27037;52.010;4.446;2022-10-31T02:27:21;11.50;99.90
41294;DHT22;27037;52.010;4.446;2022-10-31T02:30:17;11.40;99.90
41294;DHT22;27037;52.010;4.446;2022-10-31T02:41:15;11.30;99.90
41294;DHT22;27037;52.010;4.446;2022-10-31T02:44:35;11.30;99.90
41294;DHT22;27037;52.010;4.446;2022-10-31T02:51:45;11.30;99.90
41294;DHT22;27037;52.010;4.446;2022-10-31T02:54:24;11.40;99.90
41294;DHT22;27037;52.010;4.446;2022-10-31T02:57:00;11.40;99.90
41294;DHT22;27037;52.010;4.446;2022-10-31T02:59:28;11.40;99.90
41294;DHT22;27037;52.010;4.446;2022-10-31T03:02:05;11.50;99.90
41294;DHT22;27037;52.010;4.446;2022-10-31T03:05:35;11.50;99.90
41294;DHT22;27037;52.010;4.446;2022-10-31T03:08:02;11.50;99.90
41294;DHT22;27037;52.010;4.446;2022-10-31T03:10:40;11.50;99.90
41294;DHT22;27037;52.010;4.446;2022-10-31T03:18:39;11.40;99.90
41294;DHT22;27037;52.010;4.446;2022-10-31T03:21:10;11.40;99.90
41294;DHT22;27037;52.010;4.446;2022-10-31T03:23:39;11.30;99.90
41294;DHT22;27037;52.010;4.446;2022-10-31T03:26:07;11.30;99.90
41294;DHT22;27037;52.010;4.446;2022-10-31T03:28:39;11.30;99.90
41294;DHT22;27037;52.010;4.446;2022-10-31T03:31:08;11.30;99.90
41294;DHT22;27037;52.010;4.446;2022-10-31T03:33:36;11.40;99.90
41294;DHT22;27037;52.010;4.446;2022-10-31T03:36:04;11.40;99.90
41294;DHT22;27037;52.010;4.446;2022-10-31T03:38:32;11.40;99.90
41294;DHT22;27037;52.010;4.446;2022-10-31T03:41:00;11.40;99.90
41294;DHT22;27037;52.010;4.446;2022-10-31T03:43:32;11.50;99.90
41294;DHT22;27037;52.010;4.446;2022-10-31T03:45:58;11.50;99.90
41294;DHT22;27037;52.010;4.446;2022-10-31T03:48:24;11.50;99.90
41294;DHT22;27037;52.010;4.446;2022-10-31T03:53:34;11.50;99.90
41294;DHT22;27037;52.010;4.446;2022-10-31T03:56:31;11.50;99.90
41294;DHT22;27037;52.010;4.446;2022-10-31T03:59:05;11.50;99.90
41294;DHT22;27037;52.010;4.446;2022-10-31T04:01:33;11.50;99.90
41294;DHT22;27037;52.010;4.446;2022-10-31T04:04:00;11.60;99.90
41294;DHT22;27037;52.010;4.446;2022-10-31T04:06:27;11.50;99.90
41294;DHT22;27037;52.010;4.446;2022-10-31T04:08:57;11.60;99.90
41294;DHT22;27037;52.010;4.446;2022-10-31T04:11:28;11.60;99.90
41294;DHT22;27037;52.010;4.446;2022-10-31T04:13:55;11.60;99.90
41294;DHT22;27037;52.010;4.446;2022-10-31T04:16:23;11.60;99.90
41294;DHT22;27037;52.010;4.446;2022-10-31T04:18:50;11.60;99.90
41294;DHT22;27037;52.010;4.446;2022-10-31T04:21:15;11.60;99.90
41294;DHT22;27037;52.010;4.446;2022-10-31T04:23:42;11.60;99.90
41294;DHT22;27037;52.010;4.446;2022-10-31T04:26:10;11.60;99.90
41294;DHT22;27037;52.010;4.446;2022-10-31T04:28:36;11.60;99.90
41294;DHT22;27037;52.010;4.446;2022-10-31T04:31:01;11.60;99.90
41294;DHT22;27037;52.010;4.446;2022-10-31T04:33:27;11.60;99.90
41294;DHT22;27037;52.010;4.446;2022-10-31T04:35:52;11.70;99.90
41294;DHT22;27037;52.010;4.446;2022-10-31T04:38:18;11.60;99.90
41294;DHT22;27037;52.010;4.446;2022-10-31T04:40:45;11.60;99.90
41294;DHT22;27037;52.010;4.446;2022-10-31T04:43:11;11.60;99.90
41294;DHT22;27037;52.010;4.446;2022-10-31T04:45:37;11.60;99.90
41294;DHT22;27037;52.010;4.446;2022-10-31T04:48:03;11.50;99.90
41294;DHT22;27037;52.010;4.446;2022-10-31T04:50:28;11.50;99.90
41294;DHT22;27037;52.010;4.446;2022-10-31T04:52:54;11.40;99.90
41294;DHT22;27037;52.010;4.446;2022-10-31T04:55:19;11.40;99.90
41294;DHT22;27037;52.010;4.446;2022-10-31T04:57:49;11.40;99.90
41294;DHT22;27037;52.010;4.446;2022-10-31T05:00:18;11.40;99.90
41294;DHT22;27037;52.010;4.446;2022-10-31T05:02:45;11.30;99.90
41294;DHT22;27037;52.010;4.446;2022-10-31T05:05:12;11.40;99.90
41294;DHT22;27037;52.010;4.446;2022-10-31T05:07:45;11.30;99.90
41294;DHT22;27037;52.010;4.446;2022-10-31T05:10:12;11.30;99.90
41294;DHT22;27037;52.010;4.446;2022-10-31T05:12:45;11.30;99.90
41294;DHT22;27037;52.010;4.446;2022-10-31T05:15:12;11.30;99.90
41294;DHT22;27037;52.010;4.446;2022-10-31T05:17:37;11.20;99.90
41294;DHT22;27037;52.010;4.446;2022-10-31T05:20:03;11.20;99.90
41294;DHT22;27037;52.010;4.446;2022-10-31T05:22:29;11.20;99.90
41294;DHT22;27037;52.010;4.446;2022-10-31T05:24:54;11.20;99.90
41294;DHT22;27037;52.010;4.446;2022-10-31T05:27:20;11.20;99.90
41294;DHT22;27037;52.010;4.446;2022-10-31T05:29:46;11.10;99.90
41294;DHT22;27037;52.010;4.446;2022-10-31T05:32:12;11.10;99.90
41294;DHT22;27037;52.010;4.446;2022-10-31T05:34:37;11.00;99.90
41294;DHT22;27037;52.010;4.446;2022-10-31T05:37:03;11.00;99.90
41294;DHT22;27037;52.010;4.446;2022-10-31T05:39:28;11.00;99.90
41294;DHT22;27037;52.010;4.446;2022-10-31T05:41:54;10.90;99.90
41294;DHT22;27037;52.010;4.446;2022-10-31T05:44:19;10.90;99.90
41294;DHT22;27037;52.010;4.446;2022-10-31T05:46:46;10.80;99.90
41294;DHT22;27037;52.010;4.446;2022-10-31T05:49:12;10.80;99.90
41294;DHT22;27037;52.010;4.446;2022-10-31T05:51:37;10.80;99.90
41294;DHT22;27037;52.010;4.446;2022-10-31T05:54:03;10.70;99.90
41294;DHT22;27037;52.010;4.446;2022-10-31T05:56:29;10.70;99.90
41294;DHT22;27037;52.010;4.446;2022-10-31T05:58:55;10.60;99.90
41294;DHT22;27037;52.010;4.446;2022-10-31T06:01:21;10.60;99.90
41294;DHT22;27037;52.010;4.446;2022-10-31T06:03:46;10.60;99.90
41294;DHT22;27037;52.010;4.446;2022-10-31T06:06:12;10.60;99.90
41294;DHT22;27037;52.010;4.446;2022-10-31T06:08:37;10.50;99.90
41294;DHT22;27037;52.010;4.446;2022-10-31T06:11:03;10.50;99.90
41294;DHT22;27037;52.010;4.446;2022-10-31T06:13:29;10.50;99.90
41294;DHT22;27037;52.010;4.446;2022-10-31T06:15:54;10.40;99.90
41294;DHT22;27037;52.010;4.446;2022-10-31T06:18:20;10.50;99.90
41294;DHT22;27037;52.010;4.446;2022-10-31T06:20:45;10.40;99.90
41294;DHT22;27037;52.010;4.446;2022-10-31T06:23:11;10.40;99.90
41294;DHT22;27037;52.010;4.446;2022-10-31T06:25:37;10.40;99.90
41294;DHT22;27037;52.010;4.446;2022-10-31T06:28:02;10.40;99.90
41294;DHT22;27037;52.010;4.446;2022-10-31T06:30:28;10.40;99.90
41294;DHT22;27037;52.010;4.446;2022-10-31T06:32:53;10.40;99.90
41294;DHT22;27037;52.010;4.446;2022-10-31T06:35:19;10.30;99.90
41294;DHT22;27037;52.010;4.446;2022-10-31T06:37:54;10.30;99.90
41294;DHT22;27037;52.010;4.446;2022-10-31T06:40:21;10.30;99.90
41294;DHT22;27037;52.010;4.446;2022-10-31T06:42:46;10.20;99.90
41294;DHT22;27037;52.010;4.446;2022-10-31T06:45:12;10.20;99.90
41294;DHT22;27037;52.010;4.446;2022-10-31T06:47:38;10.20;99.90
41294;DHT22;27037;52.010;4.446;2022-10-31T06:50:04;10.30;99.90
41294;DHT22;27037;52.010;4.446;2022-10-31T06:52:29;10.20;99.90
41294;DHT22;27037;52.010;4.446;2022-10-31T06:54:55;10.20;99.90
41294;DHT22;27037;52.010;4.446;2022-10-31T06:57:21;10.30;99.90
41294;DHT22;27037;52.010;4.446;2022-10-31T06:59:46;10.30;99.90
41294;DHT22;27037;52.010;4.446;2022-10-31T07:02:12;10.30;99.90
41294;DHT22;27037;52.010;4.446;2022-10-31T07:04:37;10.30;99.90
41294;DHT22;27037;52.010;4.446;2022-10-31T07:07:03;10.30;99.90
41294;DHT22;27037;52.010;4.446;2022-10-31T07:09:29;10.40;99.90
41294;DHT22;27037;52.010;4.446;2022-10-31T07:11:54;10.40;99.90
41294;DHT22;27037;52.010;4.446;2022-10-31T07:14:20;10.40;99.90
41294;DHT22;27037;52.010;4.446;2022-10-31T07:16:49;10.50;99.90
41294;DHT22;27037;52.010;4.446;2022-10-31T07:19:16;10.50;99.90
41294;DHT22;27037;52.010;4.446;2022-10-31T07:21:41;10.50;99.90
41294;DHT22;27037;52.010;4.446;2022-10-31T07:24:07;10.50;99.90
41294;DHT22;27037;52.010;4.446;2022-10-31T07:26:32;10.60;99.90
41294;DHT22;27037;52.010;4.446;2022-10-31T07:28:58;10.60;99.90
41294;DHT22;27037;52.010;4.446;2022-10-31T07:31:24;10.60;99.90
41294;DHT22;27037;52.010;4.446;2022-10-31T07:33:50;10.60;99.90
41294;DHT22;27037;52.010;4.446;2022-10-31T07:36:16;10.60;99.90
41294;DHT22;27037;52.010;4.446;2022-10-31T07:38:41;10.70;99.90
41294;DHT22;27037;52.010;4.446;2022-10-31T07:41:07;10.70;99.90
41294;DHT22;27037;52.010;4.446;2022-10-31T07:43:32;10.70;99.90
41294;DHT22;27037;52.010;4.446;2022-10-31T07:45:58;10.70;99.90
41294;DHT22;27037;52.010;4.446;2022-10-31T07:48:23;10.80;99.90
41294;DHT22;27037;52.010;4.446;2022-10-31T07:50:49;10.80;99.90
41294;DHT22;27037;52.010;4.446;2022-10-31T07:53:16;10.80;99.90
41294;DHT22;27037;52.010;4.446;2022-10-31T07:55:42;10.80;99.90
41294;DHT22;27037;52.010;4.446;2022-10-31T07:58:13;10.80;99.90
41294;DHT22;27037;52.010;4.446;2022-10-31T08:00:40;10.90;99.90
41294;DHT22;27037;52.010;4.446;2022-10-31T08:03:17;10.90;99.90
41294;DHT22;27037;52.010;4.446;2022-10-31T08:05:43;11.00;99.90
41294;DHT22;27037;52.010;4.446;2022-10-31T08:08:13;11.00;99.90
41294;DHT22;27037;52.010;4.446;2022-10-31T08:10:39;11.00;99.90
41294;DHT22;27037;52.010;4.446;2022-10-31T08:13:11;11.10;99.90
41294;DHT22;27037;52.010;4.446;2022-10-31T08:15:37;11.10;99.90
41294;DHT22;27037;52.010;4.446;2022-10-31T08:18:14;11.10;99.90
41294;DHT22;27037;52.010;4.446;2022-10-31T08:20:41;11.20;99.90
41294;DHT22;27037;52.010;4.446;2022-10-31T08:23:09;11.20;99.90
41294;DHT22;27037;52.010;4.446;2022-10-31T08:25:35;11.30;99.90
41294;DHT22;27037;52.010;4.446;2022-10-31T08:28:01;11.30;99.90
41294;DHT22;27037;52.010;4.446;2022-10-31T08:30:29;11.30;99.90
41294;DHT22;27037;52.010;4.446;2022-10-31T08:35:28;11.40;99.90
41294;DHT22;27037;52.010;4.446;2022-10-31T08:37:54;11.50;99.90
41294;DHT22;27037;52.010;4.446;2022-10-31T08:40:20;11.60;99.90
41294;DHT22;27037;52.010;4.446;2022-10-31T08:42:46;11.70;99.90
41294;DHT22;27037;52.010;4.446;2022-10-31T08:45:11;11.80;99.90
41294;DHT22;27037;52.010;4.446;2022-10-31T08:47:37;11.90;99.90
41294;DHT22;27037;52.010;4.446;2022-10-31T08:50:02;12.10;99.90
41294;DHT22;27037;52.010;4.446;2022-10-31T08:52:28;12.20;99.90
41294;DHT22;27037;52.010;4.446;2022-10-31T08:54:54;12.30;99.90
41294;DHT22;27037;52.010;4.446;2022-10-31T08:57:19;12.50;99.90
41294;DHT22;27037;52.010;4.446;2022-10-31T08:59:45;12.50;99.90
41294;DHT22;27037;52.010;4.446;2022-10-31T09:02:10;12.70;99.90
41294;DHT22;27037;52.010;4.446;2022-10-31T09:04:36;12.80;99.90
41294;DHT22;27037;52.010;4.446;2022-10-31T09:07:02;12.90;99.90
41294;DHT22;27037;52.010;4.446;2022-10-31T09:09:27;13.00;99.90
41294;DHT22;27037;52.010;4.446;2022-10-31T09:11:53;13.10;99.90
41294;DHT22;27037;52.010;4.446;2022-10-31T09:14:18;13.20;99.90
41294;DHT22;27037;52.010;4.446;2022-10-31T09:16:44;13.30;99.90
41294;DHT22;27037;52.010;4.446;2022-10-31T09:19:09;13.40;99.90
41294;DHT22;27037;52.010;4.446;2022-10-31T09:21:35;13.50;99.90
41294;DHT22;27037;52.010;4.446;2022-10-31T09:24:01;13.60;99.90
41294;DHT22;27037;52.010;4.446;2022-10-31T09:26:26;13.70;99.90
41294;DHT22;27037;52.010;4.446;2022-10-31T09:28:52;13.80;99.90
41294;DHT22;27037;52.010;4.446;2022-10-31T09:31:17;13.80;99.90
41294;DHT22;27037;52.010;4.446;2022-10-31T09:33:43;13.90;99.90
41294;DHT22;27037;52.010;4.446;2022-10-31T09:36:09;13.90;99.90
41294;DHT22;27037;52.010;4.446;2022-10-31T09:38:34;14.00;99.90
41294;DHT22;27037;52.010;4.446;2022-10-31T09:50:02;14.20;99.90
41294;DHT22;27037;52.010;4.446;2022-10-31T09:52:34;14.20;99.90
41294;DHT22;27037;52.010;4.446;2022-10-31T09:55:26;14.20;99.90
41294;DHT22;27037;52.010;4.446;2022-10-31T09:57:53;14.30;99.90
41294;DHT22;27037;52.010;4.446;2022-10-31T10:00:21;14.40;99.90
41294;DHT22;27037;52.010;4.446;2022-10-31T10:03:01;14.40;99.90
41294;DHT22;27037;52.010;4.446;2022-10-31T10:08:21;14.50;99.90
41294;DHT22;27037;52.010;4.446;2022-10-31T10:21:50;14.70;99.90
41294;DHT22;27037;52.010;4.446;2022-10-31T10:30:02;15.00;99.90
41294;DHT22;27037;52.010;4.446;2022-10-31T10:32:30;15.10;99.90
41294;DHT22;27037;52.010;4.446;2022-10-31T10:35:04;15.20;99.90
41294;DHT22;27037;52.010;4.446;2022-10-31T10:37:38;15.40;99.90
41294;DHT22;27037;52.010;4.446;2022-10-31T10:40:16;15.50;99.90
41294;DHT22;27037;52.010;4.446;2022-10-31T10:42:45;15.70;99.90
41294;DHT22;27037;52.010;4.446;2022-10-31T10:45:31;15.80;99.90
41294;DHT22;27037;52.010;4.446;2022-10-31T10:48:41;15.80;99.90
41294;DHT22;27037;52.010;4.446;2022-10-31T10:51:21;15.80;99.90
41294;DHT22;27037;52.010;4.446;2022-10-31T10:53:50;15.80;99.90
41294;DHT22;27037;52.010;4.446;2022-10-31T10:57:00;15.80;99.90
41294;DHT22;27037;52.010;4.446;2022-10-31T10:59:30;15.80;99.90
41294;DHT22;27037;52.010;4.446;2022-10-31T11:01:58;15.80;99.90
41294;DHT22;27037;52.010;4.446;2022-10-31T11:04:35;15.80;99.90
41294;DHT22;27037;52.010;4.446;2022-10-31T11:07:11;15.90;99.90
41294;DHT22;27037;52.010;4.446;2022-10-31T11:09:37;15.90;99.90
41294;DHT22;27037;52.010;4.446;2022-10-31T11:12:20;15.90;99.90
41294;DHT22;27037;52.010;4.446;2022-10-31T11:14:53;16.00;99.90
41294;DHT22;27037;52.010;4.446;2022-10-31T11:17:30;16.10;99.90
41294;DHT22;27037;52.010;4.446;2022-10-31T11:22:29;16.20;99.90
41294;DHT22;27037;52.010;4.446;2022-10-31T11:24:54;16.40;99.90
41294;DHT22;27037;52.010;4.446;2022-10-31T11:27:22;16.40;99.90
41294;DHT22;27037;52.010;4.446;2022-10-31T11:29:49;16.50;99.90
41294;DHT22;27037;52.010;4.446;2022-10-31T11:34:47;16.60;99.90
41294;DHT22;27037;52.010;4.446;2022-10-31T11:37:15;16.60;99.90
41294;DHT22;27037;52.010;4.446;2022-10-31T11:39:44;16.60;99.90
41294;DHT22;27037;52.010;4.446;2022-10-31T11:42:11;16.60;99.90
41294;DHT22;27037;52.010;4.446;2022-10-31T11:44:41;16.60;99.90
41294;DHT22;27037;52.010;4.446;2022-10-31T11:47:13;16.60;99.90
41294;DHT22;27037;52.010;4.446;2022-10-31T11:49:42;16.50;99.90
41294;DHT22;27037;52.010;4.446;2022-10-31T11:52:19;16.50;99.90
41294;DHT22;27037;52.010;4.446;2022-10-31T11:54:50;16.40;99.90
41294;DHT22;27037;52.010;4.446;2022-10-31T11:59:52;16.40;99.90
41294;DHT22;27037;52.010;4.446;2022-10-31T12:02:19;16.40;99.90
41294;DHT22;27037;52.010;4.446;2022-10-31T12:04:48;16.40;99.90
41294;DHT22;27037;52.010;4.446;2022-10-31T12:07:15;16.50;99.90
41294;DHT22;27037;52.010;4.446;2022-10-31T12:09:41;16.60;99.90
41294;DHT22;27037;52.010;4.446;2022-10-31T12:12:32;16.70;99.90
41294;DHT22;27037;52.010;4.446;2022-10-31T12:26:16;17.10;99.90
41294;DHT22;27037;52.010;4.446;2022-10-31T12:28:47;17.10;99.90
41294;DHT22;27037;52.010;4.446;2022-10-31T12:34:32;17.10;99.90
41294;DHT22;27037;52.010;4.446;2022-10-31T12:50:54;17.50;99.90
41294;DHT22;27037;52.010;4.446;2022-10-31T12:53:33;17.50;99.90
41294;DHT22;27037;52.010;4.446;2022-10-31T12:56:16;17.50;99.90
41294;DHT22;27037;52.010;4.446;2022-10-31T12:58:55;17.50;99.90
41294;DHT22;27037;52.010;4.446;2022-10-31T13:01:28;17.40;99.90
41294;DHT22;27037;52.010;4.446;2022-10-31T13:07:02;17.20;99.90
41294;DHT22;27037;52.010;4.446;2022-10-31T13:09:35;17.10;99.90
41294;DHT22;27037;52.010;4.446;2022-10-31T13:12:12;17.10;99.90
41294;DHT22;27037;52.010;4.446;2022-10-31T13:14:44;17.00;99.90
41294;DHT22;27037;52.010;4.446;2022-10-31T13:17:22;17.00;99.90
41294;DHT22;27037;52.010;4.446;2022-10-31T13:19:50;17.00;99.90
41294;DHT22;27037;52.010;4.446;2022-10-31T13:22:20;16.90;99.90
41294;DHT22;27037;52.010;4.446;2022-10-31T13:27:46;16.90;99.90
41294;DHT22;27037;52.010;4.446;2022-10-31T13:30:20;16.90;99.90
41294;DHT22;27037;52.010;4.446;2022-10-31T13:35:52;16.80;99.90
41294;DHT22;27037;52.010;4.446;2022-10-31T13:41:01;16.80;99.90
41294;DHT22;27037;52.010;4.446;2022-10-31T13:45:59;16.80;99.90
41294;DHT22;27037;52.010;4.446;2022-10-31T13:50:58;16.80;99.90
41294;DHT22;27037;52.010;4.446;2022-10-31T13:53:45;16.80;99.90
41294;DHT22;27037;52.010;4.446;2022-10-31T13:56:32;16.80;99.90
41294;DHT22;27037;52.010;4.446;2022-10-31T13:59:16;16.80;99.90
41294;DHT22;27037;52.010;4.446;2022-10-31T14:02:15;16.70;99.90
41294;DHT22;27037;52.010;4.446;2022-10-31T14:04:48;16.70;99.90
41294;DHT22;27037;52.010;4.446;2022-10-31T14:07:19;16.60;99.90
41294;DHT22;27037;52.010;4.446;2022-10-31T14:12:39;16.60;99.90
41294;DHT22;27037;52.010;4.446;2022-10-31T14:18:06;16.50;99.90
41294;DHT22;27037;52.010;4.446;2022-10-31T14:20:43;16.50;99.90
41294;DHT22;27037;52.010;4.446;2022-10-31T14:26:17;16.50;99.90
41294;DHT22;27037;52.010;4.446;2022-10-31T14:28:43;16.50;99.90
41294;DHT22;27037;52.010;4.446;2022-10-31T14:34:34;16.50;99.90
41294;DHT22;27037;52.010;4.446;2022-10-31T14:43:00;16.40;99.90
41294;DHT22;27037;52.010;4.446;2022-10-31T14:48:00;16.40;99.90
41294;DHT22;27037;52.010;4.446;2022-10-31T14:50:42;16.30;99.90
41294;DHT22;27037;52.010;4.446;2022-10-31T14:53:17;16.40;99.90
41294;DHT22;27037;52.010;4.446;2022-10-31T14:55:47;16.40;99.90
41294;DHT22;27037;52.010;4.446;2022-10-31T14:58:20;16.40;99.90
41294;DHT22;27037;52.010;4.446;2022-10-31T15:00:47;16.40;99.90
41294;DHT22;27037;52.010;4.446;2022-10-31T15:03:16;16.30;99.90
41294;DHT22;27037;52.010;4.446;2022-10-31T15:05:55;16.30;99.90
41294;DHT22;27037;52.010;4.446;2022-10-31T15:08:40;16.30;99.90
41294;DHT22;27037;52.010;4.446;2022-10-31T15:11:20;16.30;99.90
41294;DHT22;27037;52.010;4.446;2022-10-31T15:13:57;16.30;99.90
41294;DHT22;27037;52.010;4.446;2022-10-31T15:16:26;16.20;99.90
41294;DHT22;27037;52.010;4.446;2022-10-31T15:18:56;16.30;99.90
41294;DHT22;27037;52.010;4.446;2022-10-31T15:21:23;16.20;99.90
41294;DHT22;27037;52.010;4.446;2022-10-31T15:23:52;16.20;99.90
41294;DHT22;27037;52.010;4.446;2022-10-31T15:26:21;16.20;99.90
41294;DHT22;27037;52.010;4.446;2022-10-31T15:29:01;16.20;99.90
41294;DHT22;27037;52.010;4.446;2022-10-31T15:31:27;16.20;99.90
41294;DHT22;27037;52.010;4.446;2022-10-31T15:33:53;16.20;99.90
41294;DHT22;27037;52.010;4.446;2022-10-31T15:36:22;16.20;99.90
41294;DHT22;27037;52.010;4.446;2022-10-31T15:38:49;16.10;99.90
41294;DHT22;27037;52.010;4.446;2022-10-31T15:43:59;16.10;99.90
41294;DHT22;27037;52.010;4.446;2022-10-31T15:46:26;16.10;99.90
41294;DHT22;27037;52.010;4.446;2022-10-31T15:48:52;16.10;99.90
41294;DHT22;27037;52.010;4.446;2022-10-31T15:51:26;16.10;99.90
41294;DHT22;27037;52.010;4.446;2022-10-31T15:53:53;16.00;99.90
41294;DHT22;27037;52.010;4.446;2022-10-31T15:56:25;16.00;99.90
41294;DHT22;27037;52.010;4.446;2022-10-31T15:58:53;16.00;99.90
41294;DHT22;27037;52.010;4.446;2022-10-31T16:01:20;16.00;99.90
41294;DHT22;27037;52.010;4.446;2022-10-31T16:06:25;15.90;99.90
41294;DHT22;27037;52.010;4.446;2022-10-31T16:08:51;15.90;99.90
41294;DHT22;27037;52.010;4.446;2022-10-31T16:11:24;15.90;99.90
41294;DHT22;27037;52.010;4.446;2022-10-31T16:16:46;15.80;99.90
41294;DHT22;27037;52.010;4.446;2022-10-31T16:19:35;15.80;99.90
41294;DHT22;27037;52.010;4.446;2022-10-31T16:22:07;15.80;99.90
41294;DHT22;27037;52.010;4.446;2022-10-31T16:25:24;15.80;99.90
41294;DHT22;27037;52.010;4.446;2022-10-31T16:27:25;15.80;99.90
41294;DHT22;27037;52.010;4.446;2022-10-31T16:29:55;15.70;99.90
41294;DHT22;27037;52.010;4.446;2022-10-31T16:37:33;15.70;99.90
41294;DHT22;27037;52.010;4.446;2022-10-31T16:39:59;15.70;99.90
41294;DHT22;27037;52.010;4.446;2022-10-31T16:42:25;15.70;99.90
41294;DHT22;27037;52.010;4.446;2022-10-31T16:44:51;15.60;99.90
41294;DHT22;27037;52.010;4.446;2022-10-31T16:47:17;15.70;99.90
41294;DHT22;27037;52.010;4.446;2022-10-31T16:49:47;15.70;99.90
41294;DHT22;27037;52.010;4.446;2022-10-31T16:52:13;15.70;99.90
41294;DHT22;27037;52.010;4.446;2022-10-31T16:54:38;15.60;99.90
41294;DHT22;27037;52.010;4.446;2022-10-31T16:57:05;15.60;99.90
41294;DHT22;27037;52.010;4.446;2022-10-31T16:59:32;15.60;99.90
41294;DHT22;27037;52.010;4.446;2022-10-31T17:02:02;15.60;99.90
41294;DHT22;27037;52.010;4.446;2022-10-31T17:04:28;15.60;99.90
41294;DHT22;27037;52.010;4.446;2022-10-31T17:06:54;15.60;99.90
41294;DHT22;27037;52.010;4.446;2022-10-31T17:09:19;15.60;99.90
41294;DHT22;27037;52.010;4.446;2022-10-31T17:11:47;15.60;99.90
41294;DHT22;27037;52.010;4.446;2022-10-31T17:14:14;15.50;99.90
41294;DHT22;27037;52.010;4.446;2022-10-31T17:16:40;15.50;99.90
41294;DHT22;27037;52.010;4.446;2022-10-31T17:19:07;15.50;99.90
41294;DHT22;27037;52.010;4.446;2022-10-31T17:21:33;15.40;99.90
41294;DHT22;27037;52.010;4.446;2022-10-31T17:23:58;15.40;99.90
41294;DHT22;27037;52.010;4.446;2022-10-31T17:26:24;15.40;99.90
41294;DHT22;27037;52.010;4.446;2022-10-31T17:28:49;15.30;99.90
41294;DHT22;27037;52.010;4.446;2022-10-31T17:33:45;15.30;99.90
41294;DHT22;27037;52.010;4.446;2022-10-31T17:36:11;15.20;99.90
41294;DHT22;27037;52.010;4.446;2022-10-31T17:38:37;15.20;99.90
41294;DHT22;27037;52.010;4.446;2022-10-31T17:41:06;15.20;99.90
41294;DHT22;27037;52.010;4.446;2022-10-31T17:43:32;15.10;99.90
41294;DHT22;27037;52.010;4.446;2022-10-31T17:45:59;15.10;99.90
41294;DHT22;27037;52.010;4.446;2022-10-31T17:48:25;15.10;99.90
41294;DHT22;27037;52.010;4.446;2022-10-31T17:50:51;15.10;99.90
41294;DHT22;27037;52.010;4.446;2022-10-31T17:53:16;15.00;99.90
41294;DHT22;27037;52.010;4.446;2022-10-31T17:55:42;15.00;99.90
41294;DHT22;27037;52.010;4.446;2022-10-31T17:58:09;15.00;99.90
41294;DHT22;27037;52.010;4.446;2022-10-31T18:00:38;15.00;99.90
41294;DHT22;27037;52.010;4.446;2022-10-31T18:03:05;14.90;99.90
41294;DHT22;27037;52.010;4.446;2022-10-31T18:05:31;14.90;99.90
41294;DHT22;27037;52.010;4.446;2022-10-31T18:07:57;14.90;99.90
41294;DHT22;27037;52.010;4.446;2022-10-31T18:10:24;14.90;99.90